Time;durP1;ratioP1;P1;durP2;ratioP2;P2;SDS_P1;SDS_P2;PMS_P1;PMS_P2;Temp;Humidity;BMP_temperature;BMP_pressure;BME280_temperature;BME280_humidity;BME280_pressure;Samples;Min_cycle;Max_cycle;Signal;HPM_P1;HPM_P2
2022/07/09 00:01:57;;;;;;;0.30;0.20;;;;;;;15.39;100.00;102829.31;10435227;28;20049;-77
2022/07/09 00:07:00;;;;;;;0.22;0.05;;;;;;;15.14;100.00;102822.31;10451409;28;20048;-78
2022/07/09 00:12:01;;;;;;;0.20;0.20;;;;;;;15.13;100.00;102819.63;10437687;28;20496;-77
2022/07/09 00:17:03;;;;;;;0.15;0.15;;;;;;;14.93;100.00;102822.38;10450929;28;20048;-78
2022/07/09 00:22:05;;;;;;;0.00;0.00;;;;;;;15.11;100.00;102829.97;10450617;28;20037;-77
2022/07/09 00:27:07;;;;;;;0.47;0.13;;;;;;;14.98;100.00;102825.16;10451918;28;20033;-77
2022/07/09 00:32:08;;;;;;;0.32;0.22;;;;;;;14.96;100.00;102826.78;10450312;28;20527;-77
2022/07/09 00:37:11;;;;;;;0.10;0.10;;;;;;;15.02;100.00;102827.00;10452874;28;20045;-78
2022/07/09 00:42:13;;;;;;;0.45;0.38;;;;;;;14.85;100.00;102827.28;10458122;28;20146;-78
2022/07/09 00:47:14;;;;;;;0.63;0.30;;;;;;;14.79;100.00;102829.59;10427262;28;20056;-78
2022/07/09 00:52:17;;;;;;;0.00;0.00;;;;;;;14.78;100.00;102829.56;10438961;28;20048;-78
2022/07/09 00:57:22;;;;;;;0.10;0.10;;;;;;;14.48;100.00;102828.38;10439678;28;20053;-78
2022/07/09 01:02:24;;;;;;;0.10;0.10;;;;;;;14.38;100.00;102810.66;10438819;28;20517;-77
2022/07/09 01:07:26;;;;;;;0.75;0.22;;;;;;;14.54;100.00;102802.69;10443791;28;20048;-78
2022/07/09 01:12:27;;;;;;;0.30;0.10;;;;;;;14.51;100.00;102807.72;10443209;28;20134;-78
2022/07/09 01:17:37;;;;;;;0.15;0.15;;;;;;;14.63;100.00;102806.47;10456611;28;20488;-78
2022/07/09 01:22:41;;;;;;;0.10;0.10;;;;;;;14.59;100.00;102795.97;10443848;28;20090;-78
2022/07/09 01:27:43;;;;;;;0.55;0.10;;;;;;;14.42;100.00;102795.28;10455716;28;20132;-78
2022/07/09 01:32:44;;;;;;;0.30;0.20;;;;;;;14.42;100.00;102786.59;10438313;28;20099;-78
2022/07/09 01:37:47;;;;;;;0.10;0.10;;;;;;;14.42;100.00;102777.13;10455641;28;20102;-77
2022/07/09 01:42:48;;;;;;;0.55;0.40;;;;;;;14.36;100.00;102774.31;10447479;28;20050;-78
2022/07/09 01:47:50;;;;;;;0.25;0.15;;;;;;;14.20;100.00;102777.97;10451180;28;20091;-78
2022/07/09 01:52:52;;;;;;;0.50;0.50;;;;;;;14.02;100.00;102774.63;10453352;28;20099;-78
2022/07/09 01:57:53;;;;;;;2.17;0.80;;;;;;;13.66;100.00;102774.84;10444378;28;20485;-78
2022/07/09 02:02:56;;;;;;;0.13;0.10;;;;;;;13.81;100.00;102775.50;10436728;28;20049;-77
2022/07/09 02:07:57;;;;;;;0.70;0.28;;;;;;;14.06;100.00;102760.97;10452846;28;20041;-78
2022/07/09 02:12:59;;;;;;;0.73;0.43;;;;;;;14.03;100.00;102753.06;10452250;28;20049;-78
2022/07/09 02:18:00;;;;;;;0.15;0.15;;;;;;;14.02;100.00;102746.13;10452066;28;20037;-78
2022/07/09 02:23:02;;;;;;;0.32;0.32;;;;;;;14.01;100.00;102744.34;10435385;28;20095;-78
2022/07/09 02:28:05;;;;;;;0.10;0.00;;;;;;;13.05;100.00;102766.09;10435324;28;20094;-77
2022/07/09 02:33:07;;;;;;;0.20;0.20;;;;;;;13.30;100.00;102752.53;10453527;28;20123;-77
2022/07/09 02:38:08;;;;;;;0.45;0.20;;;;;;;13.55;100.00;102762.31;10452103;28;20041;-77
2022/07/09 02:43:10;;;;;;;0.32;0.28;;;;;;;13.12;100.00;102747.44;10451553;28;20495;-77
2022/07/09 02:48:11;;;;;;;0.17;0.15;;;;;;;13.07;100.00;102767.06;10436202;28;20083;-77
2022/07/09 02:53:13;;;;;;;0.47;0.38;;;;;;;13.05;100.00;102755.72;10466167;28;20100;-77
2022/07/09 02:58:14;;;;;;;0.10;0.10;;;;;;;13.08;100.00;102763.63;10434306;28;20049;-78
2022/07/09 03:03:16;;;;;;;0.30;0.30;;;;;;;12.74;100.00;102770.72;10434802;28;20037;-77
2022/07/09 03:08:21;;;;;;;0.47;0.20;;;;;;;12.74;100.00;102767.25;10451829;28;20045;-77
2022/07/09 03:13:23;;;;;;;0.30;0.22;;;;;;;12.69;100.00;102764.44;10451744;28;20049;-77
2022/07/09 03:18:24;;;;;;;0.10;0.10;;;;;;;12.90;100.00;102774.91;10451827;28;20091;-77
2022/07/09 03:23:26;;;;;;;0.00;0.00;;;;;;;12.67;100.00;102777.31;10451811;28;20053;-77
2022/07/09 03:28:27;;;;;;;0.28;0.20;;;;;;;12.92;100.00;102778.44;10450815;28;20045;-77
2022/07/09 03:33:29;;;;;;;0.20;0.13;;;;;;;13.11;100.00;102779.28;10451947;28;20067;-77
2022/07/09 03:38:31;;;;;;;0.47;0.32;;;;;;;13.12;100.00;102775.91;10421327;28;20044;-77
2022/07/09 03:43:33;;;;;;;0.47;0.47;;;;;;;13.12;100.00;102788.84;10450971;28;20041;-77
2022/07/09 03:48:34;;;;;;;0.93;0.30;;;;;;;13.16;100.00;102783.88;10450773;28;20507;-77
2022/07/09 03:53:37;;;;;;;0.38;0.25;;;;;;;13.39;100.00;102785.75;10433584;28;20044;-77
2022/07/09 03:58:39;;;;;;;0.45;0.43;;;;;;;13.74;100.00;102781.19;10433733;28;20045;-76
2022/07/09 04:03:40;;;;;;;0.45;0.30;;;;;;;13.71;100.00;102781.09;10433401;28;20086;-77
2022/07/09 04:08:42;;;;;;;0.20;0.20;;;;;;;14.01;100.00;102772.84;10458650;28;20117;-77
2022/07/09 04:13:44;;;;;;;0.20;0.20;;;;;;;13.95;100.00;102764.00;10457280;28;20091;-77
2022/07/09 04:18:45;;;;;;;0.10;0.05;;;;;;;14.12;100.00;102774.16;10458663;28;20029;-76
2022/07/09 04:23:51;;;;;;;0.50;0.22;;;;;;;13.87;100.00;102773.16;10457837;28;20045;-77
2022/07/09 04:28:52;;;;;;;0.73;0.32;;;;;;;14.07;100.00;102779.16;10458167;28;20037;-77
2022/07/09 04:33:54;;;;;;;0.45;0.38;;;;;;;14.34;100.00;102781.13;10456754;28;20045;-77
2022/07/09 04:38:56;;;;;;;0.35;0.20;;;;;;;14.63;100.00;102759.78;10457249;28;20052;-77
2022/07/09 04:43:58;;;;;;;1.33;1.10;;;;;;;14.72;100.00;102760.13;10457981;28;20041;-78
2022/07/09 04:48:59;;;;;;;0.40;0.38;;;;;;;14.76;100.00;102767.22;10457470;28;20099;-77
2022/07/09 04:54:01;;;;;;;1.90;0.52;;;;;;;14.94;100.00;102756.66;10457169;28;20381;-77
2022/07/09 04:59:02;;;;;;;0.35;0.30;;;;;;;15.19;100.00;102753.25;10456825;28;20056;-77
2022/07/09 05:04:04;;;;;;;0.57;0.30;;;;;;;15.09;100.00;102751.13;10457047;28;20508;-77
2022/07/09 05:09:06;;;;;;;0.88;0.30;;;;;;;15.27;100.00;102750.06;10460813;28;20048;-77
2022/07/09 05:14:07;;;;;;;0.93;0.82;;;;;;;15.20;100.00;102744.66;10457193;28;20045;-78
2022/07/09 05:19:09;;;;;;;0.45;0.40;;;;;;;15.50;100.00;102743.06;10456010;28;20091;-78
2022/07/09 05:24:11;;;;;;;0.75;0.52;;;;;;;15.97;100.00;102730.84;10456294;28;20059;-78
2022/07/09 05:29:13;;;;;;;0.47;0.40;;;;;;;16.20;100.00;102728.09;10449695;28;20041;-78
2022/07/09 05:34:15;;;;;;;1.48;0.65;;;;;;;16.36;100.00;102729.47;10431533;28;20049;-78
2022/07/09 05:39:17;;;;;;;1.45;1.00;;;;;;;16.36;100.00;102728.59;10436003;28;20038;-77
2022/07/09 05:44:19;;;;;;;0.85;0.68;;;;;;;16.49;100.00;102720.31;10415370;28;20405;-78
2022/07/09 05:49:25;;;;;;;1.75;1.30;;;;;;;16.86;100.00;102723.16;10455807;28;20044;-78
2022/07/09 05:54:27;;;;;;;1.52;1.33;;;;;;;17.09;100.00;102722.09;10437644;28;20052;-78
2022/07/09 05:59:28;;;;;;;1.20;1.02;;;;;;;17.21;100.00;102718.06;10454681;28;20435;-77
2022/07/09 06:04:30;;;;;;;8.95;0.77;;;;;;;17.65;100.00;102720.97;10455144;28;20504;-78
2022/07/09 06:09:32;;;;;;;0.77;0.63;;;;;;;17.62;100.00;102715.66;10454429;28;20041;-77
2022/07/09 06:14:33;;;;;;;0.93;0.50;;;;;;;17.74;100.00;102720.31;10454892;28;20446;-77
2022/07/09 06:19:36;;;;;;;1.40;1.08;;;;;;;17.94;100.00;102731.25;10437390;28;20047;-77
2022/07/09 06:24:38;;;;;;;1.42;1.05;;;;;;;18.03;100.00;102717.56;10452014;28;20420;-77
2022/07/09 06:29:39;;;;;;;1.45;1.10;;;;;;;18.41;100.00;102722.78;10448183;28;20196;-77
2022/07/09 06:34:41;;;;;;;1.02;0.43;;;;;;;18.33;100.00;102712.19;10453418;28;20090;-78
2022/07/09 06:39:45;;;;;;;1.45;0.75;;;;;;;18.69;100.00;102695.56;10453159;28;20045;-77
2022/07/09 06:44:47;;;;;;;0.38;0.22;;;;;;;19.09;100.00;102694.63;10453565;28;20047;-77
2022/07/09 06:49:49;;;;;;;1.23;0.63;;;;;;;19.40;100.00;102689.97;10435027;28;20056;-77
2022/07/09 06:54:50;;;;;;;0.73;0.50;;;;;;;19.03;100.00;102696.25;10434885;28;20492;-77
2022/07/09 06:59:52;;;;;;;0.68;0.57;;;;;;;19.20;100.00;102693.09;10435027;28;20110;-77
2022/07/09 07:04:53;;;;;;;1.35;0.75;;;;;;;19.39;100.00;102689.06;10452526;28;20492;-77
2022/07/09 07:09:55;;;;;;;1.13;0.65;;;;;;;19.00;100.00;102685.78;10460511;28;20053;-78
2022/07/09 07:14:57;;;;;;;0.65;0.50;;;;;;;19.65;100.00;102681.69;10452603;28;20053;-77
2022/07/09 07:19:58;;;;;;;1.10;0.65;;;;;;;19.37;100.00;102669.88;10450946;28;20048;-78
2022/07/09 07:25:00;;;;;;;3.25;0.50;;;;;;;20.92;100.00;102666.88;10447452;28;20045;-78
2022/07/09 07:30:03;;;;;;;1.65;0.65;;;;;;;20.56;100.00;102669.06;10448073;28;20041;-78
2022/07/09 07:35:04;;;;;;;1.08;0.57;;;;;;;20.73;100.00;102660.56;10450086;28;20559;-77
2022/07/09 07:40:06;;;;;;;2.17;1.08;;;;;;;20.76;100.00;102652.72;10449574;28;20060;-77
2022/07/09 07:45:13;;;;;;;0.10;0.10;;;;;;;20.47;100.00;102652.38;10428630;28;20049;-77
2022/07/09 07:50:14;;;;;;;0.30;0.20;;;;;;;20.82;100.00;102658.03;10448420;28;20064;-78
2022/07/09 07:55:16;;;;;;;0.93;0.50;;;;;;;21.23;100.00;102644.47;10450413;28;20048;-78
2022/07/09 08:00:17;;;;;;;0.43;0.32;;;;;;;21.21;100.00;102642.72;10439479;28;20044;-78
2022/07/09 08:05:19;;;;;;;0.45;0.32;;;;;;;21.56;100.00;102624.63;10443642;28;20051;-78
2022/07/09 08:10:21;;;;;;;0.38;0.20;;;;;;;22.16;100.00;102632.03;10446460;28;20270;-78
2022/07/09 08:15:23;;;;;;;0.40;0.30;;;;;;;22.35;98.55;102619.00;10447527;28;20041;-78
2022/07/09 08:20:24;;;;;;;0.85;0.52;;;;;;;22.52;97.88;102612.97;10448734;28;20037;-78
2022/07/09 08:25:26;;;;;;;0.75;0.47;;;;;;;22.00;98.26;102612.72;10447224;28;20452;-78
2022/07/09 08:30:28;;;;;;;0.10;0.10;;;;;;;22.49;92.60;102613.81;10429195;28;20053;-78
2022/07/09 08:35:29;;;;;;;0.47;0.35;;;;;;;22.23;97.73;102611.09;10446661;28;20041;-79
2022/07/09 08:40:32;;;;;;;0.15;0.15;;;;;;;22.17;98.95;102618.03;10422116;28;20052;-78
2022/07/09 08:45:36;;;;;;;0.22;0.08;;;;;;;21.94;99.26;102607.44;10434549;28;20056;-78
2022/07/09 08:50:40;;;;;;;0.93;0.55;;;;;;;22.39;97.87;102605.03;10447935;28;20083;-78
2022/07/09 08:55:43;;;;;;;1.95;0.30;;;;;;;22.25;99.47;102604.97;10451145;28;20053;-78
2022/07/09 09:00:47;;;;;;;0.20;0.20;;;;;;;22.00;100.00;102599.59;10436954;28;20045;-78
2022/07/09 09:06:09;;;;;;;0.30;0.25;;;;;;;22.36;97.86;102589.25;10450790;28;20040;-78
2022/07/09 09:11:15;;;;;;;1.25;0.85;;;;;;;22.57;96.90;102579.69;10458841;28;20053;-79
2022/07/09 09:16:18;;;;;;;0.38;0.30;;;;;;;22.63;95.93;102563.94;10450877;28;20056;-78
2022/07/09 09:21:22;;;;;;;2.25;0.47;;;;;;;22.93;92.68;102562.22;10446294;28;20049;-77
2022/07/09 09:26:26;;;;;;;0.30;0.30;;;;;;;22.34;94.54;102562.09;10451707;28;20037;-77
2022/07/09 09:31:30;;;;;;;0.10;0.10;;;;;;;22.55;92.64;102570.94;10469187;28;20049;-78
2022/07/09 09:36:38;;;;;;;0.38;0.20;;;;;;;22.49;96.40;102577.94;10459827;28;20044;-77
2022/07/09 09:41:51;;;;;;;0.30;0.22;;;;;;;22.07;97.01;102579.50;10471486;28;20048;-78
2022/07/09 09:46:55;;;;;;;0.60;0.40;;;;;;;21.85;96.57;102584.66;10447528;28;20041;-78
2022/07/09 09:52:01;;;;;;;0.40;0.30;;;;;;;22.10;100.00;102583.91;10458332;28;20055;-78
2022/07/09 09:57:16;;;;;;;0.47;0.35;;;;;;;22.58;97.76;102577.06;10479467;28;20094;-77
2022/07/09 10:02:20;;;;;;;0.35;0.30;;;;;;;22.01;98.42;102589.97;10465682;28;20067;-77
2022/07/09 10:07:22;;;;;;;0.32;0.22;;;;;;;21.86;100.00;102590.78;10477760;28;20045;-77
2022/07/09 10:12:35;;;;;;;0.00;0.00;;;;;;;21.82;99.62;102584.63;10457956;28;20131;-77
2022/07/09 10:17:41;;;;;;;0.25;0.25;;;;;;;21.44;99.93;102593.09;10475412;28;20067;-76
2022/07/09 10:22:44;;;;;;;0.13;0.13;;;;;;;22.44;99.94;102574.44;10435087;28;20056;-76
2022/07/09 10:27:48;;;;;;;0.25;0.25;;;;;;;22.59;99.22;102570.94;10453556;28;20173;-79
2022/07/09 10:33:05;;;;;;;0.52;0.52;;;;;;;22.66;97.28;102566.59;10442774;28;20375;-77
2022/07/09 10:38:07;;;;;;;0.75;0.47;;;;;;;22.45;97.84;102570.03;10452237;28;20096;-78
2022/07/09 10:43:11;;;;;;;1.40;0.80;;;;;;;22.00;100.00;102572.47;10451559;28;20044;-76
2022/07/09 10:48:16;;;;;;;0.25;0.25;;;;;;;21.51;99.83;102576.53;10472323;28;20043;-75
2022/07/09 10:53:18;;;;;;;0.10;0.10;;;;;;;21.16;100.00;102582.38;10452135;28;20056;-78
2022/07/09 10:58:20;;;;;;;0.50;0.28;;;;;;;21.33;100.00;102587.75;10453552;28;20045;-76
2022/07/09 11:03:27;;;;;;;0.35;0.30;;;;;;;21.77;98.17;102583.72;10475350;28;20037;-76
2022/07/09 11:08:30;;;;;;;0.10;0.10;;;;;;;21.85;100.00;102575.88;10475993;28;20041;-77
2022/07/09 11:13:33;;;;;;;0.45;0.13;;;;;;;22.54;96.97;102567.44;10469430;28;20080;-75
2022/07/09 11:18:35;;;;;;;0.00;0.00;;;;;;;22.71;87.93;102551.72;10470316;28;20049;-76
2022/07/09 11:23:37;;;;;;;0.20;0.20;;;;;;;23.35;92.65;102554.38;10468370;28;20485;-77
2022/07/09 11:28:39;;;;;;;0.32;0.20;;;;;;;22.57;91.64;102550.81;10464009;28;20033;-76
2022/07/09 11:39:01;;;;;;;0.00;0.00;;;;;;;23.73;84.36;102548.16;10470459;28;20029;-76
2022/07/09 11:44:03;;;;;;;0.20;0.10;;;;;;;23.09;82.33;102556.13;10445477;28;20049;-75
2022/07/09 11:49:15;;;;;;;0.05;0.03;;;;;;;23.27;87.66;102551.75;10453975;28;20403;-77
2022/07/09 11:54:26;;;;;;;0.20;0.00;;;;;;;23.06;80.37;102553.47;10441127;28;20076;-77
2022/07/09 11:59:34;;;;;;;0.03;0.03;;;;;;;22.57;80.32;102551.66;10457967;28;20044;-76
2022/07/09 12:04:36;;;;;;;0.10;0.10;;;;;;;22.72;78.08;102569.22;10462033;28;20124;-77
2022/07/09 12:09:38;;;;;;;0.00;0.00;;;;;;;23.23;78.02;102556.13;10444270;28;20131;-77
2022/07/09 12:14:41;;;;;;;0.00;0.00;;;;;;;22.61;76.21;102557.81;10456907;28;20045;-77
2022/07/09 12:19:48;;;;;;;0.30;0.28;;;;;;;22.43;77.73;102551.66;10451843;28;20049;-77
2022/07/09 12:24:53;;;;;;;0.15;0.10;;;;;;;22.52;66.75;102552.56;10436574;28;20123;-77
2022/07/09 12:29:55;;;;;;;0.00;0.00;;;;;;;23.05;67.78;102541.19;10460994;28;20127;-79
2022/07/09 12:34:58;;;;;;;0.20;0.13;;;;;;;22.92;64.38;102545.59;10432533;28;20233;-76
2022/07/09 12:40:01;;;;;;;0.52;0.10;;;;;;;23.93;65.05;102537.59;10454796;28;20060;-77
2022/07/09 12:45:03;;;;;;;0.52;0.52;;;;;;;23.11;63.32;102545.59;10433022;28;20056;-78
2022/07/09 12:50:11;;;;;;;0.00;0.00;;;;;;;23.11;65.32;102543.84;10466171;28;20132;-77
2022/07/09 12:55:13;;;;;;;0.28;0.00;;;;;;;23.19;63.29;102533.34;10455148;28;20056;-77
2022/07/09 13:00:15;;;;;;;0.00;0.00;;;;;;;23.36;63.38;102533.31;10468663;28;20391;-78
2022/07/09 13:05:17;;;;;;;0.00;0.00;;;;;;;23.30;60.94;102533.34;10448989;28;20071;-77
2022/07/09 13:10:20;;;;;;;0.00;0.00;;;;;;;23.42;62.30;102525.41;10466990;28;20083;-77
2022/07/09 13:15:23;;;;;;;0.00;0.00;;;;;;;23.26;62.95;102524.56;10460375;28;20494;-78
2022/07/09 13:20:25;;;;;;;0.00;0.00;;;;;;;23.71;60.32;102528.84;10473679;28;20037;-77
2022/07/09 13:25:27;;;;;;;0.10;0.10;;;;;;;23.86;60.00;102525.31;10472136;28;20036;-76
2022/07/09 13:30:29;;;;;;;0.40;0.25;;;;;;;23.44;59.80;102528.91;10446309;28;20081;-77
2022/07/09 13:35:31;;;;;;;0.10;0.10;;;;;;;23.48;56.49;102527.16;10467512;28;20045;-77
2022/07/09 13:40:32;;;;;;;0.20;0.00;;;;;;;23.18;63.28;102525.47;10442913;28;20048;-77
2022/07/09 13:45:34;;;;;;;0.32;0.20;;;;;;;23.28;60.33;102522.81;10449781;28;20049;-78
2022/07/09 13:50:39;;;;;;;0.10;0.05;;;;;;;23.51;57.66;102526.28;10478768;28;20383;-77
2022/07/09 13:55:41;;;;;;;0.10;0.10;;;;;;;23.56;55.61;102529.78;10463652;28;20063;-77
2022/07/09 14:00:43;;;;;;;0.00;0.00;;;;;;;23.26;50.73;102523.72;10460721;28;20045;-78
2022/07/09 14:05:45;;;;;;;0.20;0.10;;;;;;;23.77;54.47;102513.94;10447706;28;20060;-77
2022/07/09 14:10:46;;;;;;;0.00;0.00;;;;;;;23.42;49.66;102517.53;10456381;28;20059;-78
2022/07/09 14:15:56;;;;;;;0.13;0.10;;;;;;;23.71;55.46;102515.69;10448820;28;20484;-78
2022/07/09 14:20:59;;;;;;;0.20;0.10;;;;;;;23.60;56.21;102505.22;10446317;28;20033;-78
2022/07/09 14:26:01;;;;;;;0.00;0.00;;;;;;;24.48;60.18;102498.66;10459626;28;20120;-77
2022/07/09 14:31:03;;;;;;;0.00;0.00;;;;;;;23.26;55.88;102505.31;10448208;28;20037;-77
2022/07/09 14:36:05;;;;;;;0.93;0.10;;;;;;;23.19;70.33;102507.06;10472753;28;20037;-78
2022/07/09 14:41:07;;;;;;;0.00;0.00;;;;;;;22.50;69.50;102515.78;10443963;28;20156;-77
2022/07/09 14:46:09;;;;;;;0.00;0.00;;;;;;;23.01;74.50;102515.81;10428083;28;20057;-77
2022/07/09 14:51:11;;;;;;;0.00;0.00;;;;;;;22.63;70.07;102520.19;10457814;28;20377;-78
2022/07/09 14:56:13;;;;;;;0.32;0.28;;;;;;;23.14;72.73;102520.16;10445289;28;20403;-76
2022/07/09 15:01:15;;;;;;;0.25;0.10;;;;;;;22.44;71.13;102521.91;10440658;28;20476;-77
2022/07/09 15:06:18;;;;;;;0.00;0.00;;;;;;;21.59;73.52;102537.28;10437022;28;20040;-78
2022/07/09 15:11:21;;;;;;;0.08;0.08;;;;;;;22.06;77.35;102529.63;10457190;28;20045;-77
2022/07/09 15:16:22;;;;;;;0.20;0.15;;;;;;;21.48;77.82;102537.16;10441948;28;20048;-77
2022/07/09 15:21:27;;;;;;;0.15;0.05;;;;;;;21.13;74.75;102529.94;10454851;28;20484;-77
2022/07/09 15:26:31;;;;;;;0.40;0.30;;;;;;;21.48;71.79;102531.91;10443143;28;20060;-76
2022/07/09 15:31:33;;;;;;;0.00;0.00;;;;;;;21.22;72.33;102527.41;10437544;28;20628;-77
2022/07/09 15:36:35;;;;;;;0.25;0.17;;;;;;;21.19;70.31;102532.59;10452515;28;20579;-75
2022/07/09 15:41:36;;;;;;;0.30;0.10;;;;;;;21.54;69.78;102536.34;10457014;28;20061;-77
2022/07/09 15:46:45;;;;;;;0.00;0.00;;;;;;;21.20;72.85;102538.75;10440561;28;20049;-76
2022/07/09 15:51:47;;;;;;;0.50;0.13;;;;;;;20.99;71.09;102536.81;10458882;28;20358;-77
2022/07/09 15:56:50;;;;;;;0.00;0.00;;;;;;;21.21;68.68;102538.75;10440804;28;20045;-77
2022/07/09 16:01:53;;;;;;;0.05;0.05;;;;;;;21.58;71.52;102545.13;10439742;28;20052;-77
2022/07/09 16:06:56;;;;;;;0.63;0.13;;;;;;;21.20;71.21;102557.94;10458048;28;20037;-77
2022/07/09 16:17:19;;;;;;;0.82;0.20;;;;;;;20.59;72.71;102553.88;10437079;28;20040;-77
2022/07/09 16:22:20;;;;;;;0.05;0.05;;;;;;;20.53;72.80;102547.72;10438942;28;20072;-77
2022/07/09 16:27:22;;;;;;;0.00;0.00;;;;;;;19.98;73.47;102561.88;10446255;28;20029;-76
2022/07/09 16:32:24;;;;;;;0.10;0.10;;;;;;;20.28;72.33;102550.94;10437984;28;20512;-78
2022/07/09 16:37:27;;;;;;;0.00;0.00;;;;;;;20.20;71.56;102560.44;10433736;28;20532;-77
2022/07/09 16:42:28;;;;;;;0.80;0.30;;;;;;;20.19;72.14;102560.41;10453700;28;20050;-76
2022/07/09 16:47:30;;;;;;;0.00;0.00;;;;;;;19.99;72.54;102570.63;10435671;28;20055;-76
2022/07/09 16:52:32;;;;;;;0.00;0.00;;;;;;;19.97;73.97;102578.44;10437130;28;20049;-77
2022/07/09 16:57:34;;;;;;;0.00;0.00;;;;;;;20.13;75.01;102577.78;10435256;28;20049;-77
2022/07/09 17:02:35;;;;;;;0.10;0.10;;;;;;;19.71;74.86;102585.88;10438162;28;20037;-77
2022/07/09 17:07:37;;;;;;;0.00;0.00;;;;;;;19.40;74.45;102590.66;10449098;28;20496;-76
2022/07/09 17:12:40;;;;;;;0.10;0.10;;;;;;;19.33;75.75;102587.91;10436689;28;20135;-76
2022/07/09 17:17:41;;;;;;;0.00;0.00;;;;;;;19.11;73.26;102578.88;10438551;28;20056;-76
2022/07/09 17:22:43;;;;;;;0.10;0.10;;;;;;;19.30;76.98;102585.28;10457088;28;20044;-76
2022/07/09 17:27:46;;;;;;;1.45;0.20;;;;;;;18.98;77.97;102588.22;10439805;28;20086;-76
2022/07/09 17:32:48;;;;;;;0.00;0.00;;;;;;;18.88;79.17;102596.69;10457772;28;20041;-77
2022/07/09 17:37:51;;;;;;;0.10;0.00;;;;;;;18.57;84.65;102597.84;10435915;28;20049;-75
2022/07/09 17:42:53;;;;;;;5.57;0.38;;;;;;;18.53;87.19;102603.03;10458514;28;20052;-76
2022/07/09 17:47:55;;;;;;;0.10;0.10;;;;;;;18.49;86.70;102614.22;10446267;28;20045;-76
2022/07/09 17:52:56;;;;;;;0.00;0.00;;;;;;;18.35;85.78;102610.47;10445107;28;20400;-75
2022/07/09 17:58:01;;;;;;;0.03;0.00;;;;;;;18.04;86.18;102608.09;10458677;28;20033;-75
2022/07/09 18:03:08;;;;;;;2.17;0.45;;;;;;;17.95;87.45;102605.25;10438966;28;20052;-76
2022/07/09 18:08:10;;;;;;;0.17;0.17;;;;;;;17.67;87.48;102615.03;10464564;28;20063;-76
2022/07/09 18:13:14;;;;;;;0.10;0.10;;;;;;;17.72;87.49;102622.97;10438784;28;20484;-76
2022/07/09 18:18:16;;;;;;;0.52;0.30;;;;;;;17.48;87.12;102618.91;10458457;28;20037;-76
2022/07/09 18:23:17;;;;;;;0.20;0.05;;;;;;;17.46;84.68;102625.81;10456881;28;20048;-75
2022/07/09 18:28:20;;;;;;;0.08;0.03;;;;;;;17.36;84.63;102618.59;10457368;28;20037;-76
2022/07/09 18:33:22;;;;;;;0.00;0.00;;;;;;;17.29;82.59;102623.66;10399310;28;1073759;-75
2022/07/09 18:38:49;;;;;;;0.00;0.00;;;;;;;17.18;84.94;102624.22;10429493;28;20060;-75
2022/07/09 18:43:51;;;;;;;5.00;0.93;;;;;;;16.93;86.83;102639.22;10458158;28;20049;-75
2022/07/09 18:48:52;;;;;;;0.10;0.10;;;;;;;16.95;86.81;102638.41;10464934;28;20128;-75
2022/07/09 18:53:54;;;;;;;4.10;0.90;;;;;;;16.86;85.21;102639.84;10442655;28;20051;-75
2022/07/09 18:58:56;;;;;;;0.03;0.00;;;;;;;16.78;84.99;102650.94;10435935;28;20045;-75
2022/07/09 19:03:57;;;;;;;0.00;0.00;;;;;;;16.53;87.91;102648.44;10441663;28;20045;-75
2022/07/09 19:08:59;;;;;;;0.00;0.00;;;;;;;16.44;85.30;102649.94;10438422;28;20057;-75
2022/07/09 19:14:01;;;;;;;0.10;0.10;;;;;;;16.25;86.56;102652.84;10453160;28;20480;-75
2022/07/09 19:19:03;;;;;;;0.00;0.00;;;;;;;16.29;86.03;102654.69;10455723;28;20041;-75
2022/07/09 19:24:06;;;;;;;0.00;0.00;;;;;;;16.37;85.34;102653.19;10455779;28;20109;-75
2022/07/09 19:29:08;;;;;;;0.10;0.05;;;;;;;16.45;83.24;102641.31;10421256;28;20051;-75
2022/07/09 19:34:10;;;;;;;0.00;0.00;;;;;;;16.31;83.05;102653.00;10456015;28;20049;-75
2022/07/09 19:39:14;;;;;;;1.35;0.60;;;;;;;16.20;84.55;102655.28;10449479;28;20048;-75
2022/07/09 19:44:17;;;;;;;0.35;0.20;;;;;;;15.99;86.84;102656.41;10459519;28;20067;-75
2022/07/09 19:49:18;;;;;;;0.00;0.00;;;;;;;15.94;86.92;102672.69;10441673;28;20135;-75
2022/07/09 19:54:20;;;;;;;2.83;0.20;;;;;;;15.81;88.46;102672.25;10456229;28;20044;-74
2022/07/09 19:59:22;;;;;;;0.00;0.00;;;;;;;15.59;90.58;102675.84;10443063;28;20116;-75
2022/07/09 20:04:24;;;;;;;0.00;0.00;;;;;;;15.39;93.08;102690.75;10446635;28;20148;-75
2022/07/09 20:09:26;;;;;;;0.00;0.00;;;;;;;15.35;88.86;102691.50;10460555;28;20037;-74
2022/07/09 20:14:29;;;;;;;0.00;0.00;;;;;;;15.44;89.75;102689.22;10438464;28;20094;-74
2022/07/09 20:19:31;;;;;;;0.00;0.00;;;;;;;15.49;88.74;102698.03;10430858;28;20088;-76
2022/07/09 20:24:32;;;;;;;0.10;0.00;;;;;;;15.54;88.82;102690.41;10436822;28;20048;-74
2022/07/09 20:29:35;;;;;;;0.63;0.20;;;;;;;15.50;89.91;102696.31;10459458;28;20094;-77
2022/07/09 20:34:37;;;;;;;0.00;0.00;;;;;;;15.54;90.22;102693.88;10461454;28;20072;-75
2022/07/09 20:39:38;;;;;;;0.00;0.00;;;;;;;15.51;90.72;102693.78;10454978;28;20049;-76
2022/07/09 20:44:40;;;;;;;0.00;0.00;;;;;;;15.50;89.49;102702.41;10444324;28;20393;-77
2022/07/09 20:49:42;;;;;;;0.00;0.00;;;;;;;15.62;91.10;102696.75;10446888;28;20057;-77
2022/07/09 20:54:46;;;;;;;0.00;0.00;;;;;;;15.46;92.67;102700.53;10446392;28;20041;-77
2022/07/09 20:59:48;;;;;;;0.20;0.00;;;;;;;15.35;93.05;102704.47;10447347;28;20048;-77
2022/07/09 21:04:49;;;;;;;0.30;0.00;;;;;;;15.20;93.98;102708.28;10460194;28;20504;-77
2022/07/09 21:09:53;;;;;;;0.00;0.00;;;;;;;15.19;94.88;102701.34;10457828;28;20129;-77
2022/07/09 21:14:54;;;;;;;0.43;0.03;;;;;;;15.19;95.50;102703.94;10441248;28;20071;-77
2022/07/09 21:19:56;;;;;;;0.00;0.00;;;;;;;15.12;96.64;102701.94;10439493;28;20047;-77
2022/07/09 21:24:59;;;;;;;0.00;0.00;;;;;;;14.90;98.67;102695.06;10456278;28;20040;-77
2022/07/09 21:30:00;;;;;;;0.10;0.03;;;;;;;14.54;100.00;102700.63;10453697;28;20037;-77
2022/07/09 21:35:03;;;;;;;0.43;0.15;;;;;;;14.54;100.00;102698.94;10458866;28;20102;-77
2022/07/09 21:40:06;;;;;;;0.28;0.10;;;;;;;14.36;100.00;102703.38;10459698;28;20060;-77
2022/07/09 21:45:08;;;;;;;0.00;0.00;;;;;;;14.42;100.00;102694.16;10423005;28;20135;-77
2022/07/09 21:50:11;;;;;;;0.00;0.00;;;;;;;14.31;100.00;102690.25;10464183;28;20463;-78
2022/07/09 21:55:13;;;;;;;0.00;0.00;;;;;;;14.31;100.00;102695.44;10447651;28;20045;-78
2022/07/09 22:00:18;;;;;;;0.00;0.00;;;;;;;14.00;100.00;102689.03;10461855;28;20045;-77
2022/07/09 22:05:20;;;;;;;0.30;0.22;;;;;;;14.03;100.00;102677.91;10462079;28;20131;-77
2022/07/09 22:10:26;;;;;;;0.00;0.00;;;;;;;13.92;100.00;102670.59;10459768;28;20049;-77
2022/07/09 22:15:28;;;;;;;0.00;0.00;;;;;;;13.92;100.00;102680.94;10443931;28;20049;-78
2022/07/09 22:20:29;;;;;;;0.00;0.00;;;;;;;13.66;100.00;102681.59;10454942;28;20079;-77
2022/07/09 22:25:31;;;;;;;0.00;0.00;;;;;;;13.71;100.00;102680.06;10475940;28;20068;-78
2022/07/09 22:30:33;;;;;;;0.00;0.00;;;;;;;13.72;100.00;102682.72;10459833;28;20064;-78
2022/07/09 22:35:38;;;;;;;0.00;0.00;;;;;;;13.66;100.00;102691.97;10459307;28;20488;-78
2022/07/09 22:40:39;;;;;;;0.00;0.00;;;;;;;13.77;100.00;102689.00;10477876;28;20037;-78
2022/07/09 22:45:42;;;;;;;0.00;0.00;;;;;;;13.98;100.00;102687.19;10456811;28;20048;-78
2022/07/09 22:50:44;;;;;;;0.00;0.00;;;;;;;13.95;100.00;102695.72;10455097;28;20035;-78
2022/07/09 22:55:45;;;;;;;0.00;0.00;;;;;;;13.87;100.00;102698.03;10437661;28;20389;-78
2022/07/09 23:00:47;;;;;;;0.00;0.00;;;;;;;14.09;100.00;102693.72;10455061;28;20040;-78
2022/07/09 23:05:49;;;;;;;0.05;0.00;;;;;;;14.09;100.00;102696.31;10423979;28;20087;-78
2022/07/09 23:10:50;;;;;;;0.00;0.00;;;;;;;14.18;100.00;102688.00;10454605;28;20057;-78
2022/07/09 23:15:52;;;;;;;0.00;0.00;;;;;;;14.44;100.00;102689.88;10437396;28;20056;-78